createdAt,value
2018-04-09T00:00:15.234Z,57.08
2018-04-09T00:01:15.259Z,57.08
2018-04-09T00:02:15.295Z,57.28
2018-04-09T00:03:15.589Z,57.18
2018-04-09T00:04:15.408Z,56.88
2018-04-09T00:05:15.400Z,57.08
2018-04-09T00:06:15.435Z,56.79
2018-04-09T00:07:15.459Z,57.08
2018-04-09T00:08:15.499Z,57.18
2018-04-09T00:09:15.544Z,56.88
2018-04-09T00:10:15.813Z,56.88
2018-04-09T00:11:15.588Z,57.18
2018-04-09T00:12:15.624Z,56.98
2018-04-09T00:13:15.677Z,57.28
2018-04-09T00:14:15.697Z,57.24
2018-04-09T00:15:15.751Z,57.46
2018-04-09T00:16:15.757Z,57.66
2018-04-09T00:17:16.042Z,57.56
2018-04-09T00:18:15.826Z,57.37
2018-04-09T00:19:15.866Z,57.46
2018-04-09T00:20:15.892Z,57.24
2018-04-09T00:21:15.922Z,57.37
2018-04-09T00:22:15.962Z,57.24
2018-04-09T00:23:15.987Z,57.34
2018-04-09T00:24:16.272Z,56.98
2018-04-09T00:25:16.053Z,57.34
2018-04-09T00:26:16.086Z,57.73
2018-04-09T00:27:16.120Z,57.63
2018-04-09T00:28:16.155Z,57.66
2018-04-09T00:29:16.191Z,57.66
2018-04-09T00:30:16.213Z,57.34
2018-04-09T00:31:16.503Z,57.54
2018-04-09T00:32:16.283Z,57.46
2018-04-09T00:33:16.313Z,57.46
2018-04-09T00:34:16.340Z,57.44
2018-04-09T00:35:16.376Z,58.12
2018-04-09T00:36:16.410Z,57.44
2018-04-09T00:37:16.501Z,57.44
2018-04-09T00:38:16.784Z,57.24
2018-04-09T00:39:16.509Z,57.34
2018-04-09T00:40:16.545Z,57.34
2018-04-09T00:41:16.573Z,57.44
2018-04-09T00:42:16.614Z,57.28
2018-04-09T00:43:16.642Z,57.82
2018-04-09T00:44:16.671Z,58.02
2018-04-09T00:45:16.956Z,58.02
2018-04-09T00:46:16.735Z,58.02
2018-04-09T00:47:16.768Z,58.02
2018-04-09T00:48:16.800Z,58.02
2018-04-09T00:49:16.837Z,58.02
2018-04-09T00:50:16.868Z,58.02
2018-04-09T00:51:16.902Z,57.63
2018-04-09T00:52:17.185Z,57.63
2018-04-09T00:53:16.973Z,57.92
2018-04-09T00:54:17.000Z,57.82
2018-04-09T00:55:17.040Z,57.63
2018-04-09T00:56:17.071Z,57.92
2018-04-09T00:57:17.096Z,57.63
2018-04-09T00:58:17.434Z,57.63
2018-04-09T00:59:17.168Z,58.02
2018-04-09T01:00:17.229Z,57.82
2018-04-09T01:01:17.241Z,57.92
2018-04-09T01:02:17.260Z,57.92
2018-04-09T01:03:17.300Z,58.21
2018-04-09T01:04:17.577Z,58.60
2018-04-09T01:05:17.431Z,58.60
2018-04-09T01:06:17.390Z,58.40
2018-04-09T01:07:17.470Z,58.60
2018-04-09T01:08:17.465Z,58.40
2018-04-09T01:09:17.500Z,58.21
2018-04-09T01:10:17.776Z,58.31
2018-04-09T01:11:17.562Z,58.31
2018-04-09T01:12:17.954Z,58.40
2018-04-09T01:13:17.623Z,58.31
2018-04-09T01:14:17.663Z,58.40
2018-04-09T01:15:17.749Z,58.40
2018-04-09T01:16:17.979Z,58.60
2018-04-09T01:17:17.751Z,58.50
2018-04-09T01:18:17.792Z,58.50
2018-04-09T01:19:17.821Z,58.50
2018-04-09T01:20:17.855Z,58.70
2018-04-09T01:21:17.883Z,58.70
2018-04-09T01:22:18.170Z,58.40
2018-04-09T01:23:17.950Z,58.70
2018-04-09T01:24:17.992Z,58.40
2018-04-09T01:25:18.026Z,58.21
2018-04-09T01:26:18.077Z,58.31
2018-04-09T01:27:18.077Z,58.31
2018-04-09T01:28:18.360Z,58.31
2018-04-09T01:29:18.165Z,58.40
2018-04-09T01:30:18.194Z,58.21
2018-04-09T01:31:18.210Z,58.40
2018-04-09T01:32:18.279Z,58.70
2018-04-09T01:33:18.276Z,58.21
2018-04-09T01:34:18.561Z,58.31
2018-04-09T01:35:18.344Z,58.31
2018-04-09T01:36:18.373Z,58.31
2018-04-09T01:37:18.404Z,58.31
2018-04-09T01:38:18.438Z,58.31
2018-04-09T01:39:18.472Z,58.21
2018-04-09T01:40:18.762Z,58.40
2018-04-09T01:41:18.537Z,58.70
2018-04-09T01:42:18.578Z,58.50
2018-04-09T01:43:18.599Z,58.31
2018-04-09T01:44:18.635Z,58.31
2018-04-09T01:45:18.668Z,58.67
2018-04-09T01:46:18.970Z,58.57
2018-04-09T01:47:18.735Z,58.21
2018-04-09T01:48:18.776Z,58.50
2018-04-09T01:49:18.805Z,58.40
2018-04-09T01:50:18.847Z,58.50
2018-04-09T01:51:18.869Z,58.50
2018-04-09T01:52:19.196Z,58.31
2018-04-09T01:53:18.924Z,58.31
2018-04-09T01:54:18.988Z,58.40
2018-04-09T01:55:19.060Z,58.28
2018-04-09T01:56:19.029Z,58.37
2018-04-09T01:57:19.060Z,58.28
2018-04-09T01:58:19.341Z,58.31
2018-04-09T01:59:19.119Z,58.21
2018-04-09T02:00:19.163Z,58.40
2018-04-09T02:01:19.194Z,58.50
2018-04-09T02:02:19.227Z,58.21
2018-04-09T02:03:19.249Z,58.31
2018-04-09T02:04:19.953Z,58.50
2018-04-09T02:05:19.319Z,58.21
2018-04-09T02:06:19.348Z,58.31
2018-04-09T02:07:19.381Z,58.21
2018-04-09T02:08:19.431Z,58.40
2018-04-09T02:09:19.456Z,58.21
2018-04-09T02:10:19.732Z,58.50
2018-04-09T02:11:19.514Z,58.31
2018-04-09T02:12:19.542Z,58.57
2018-04-09T02:13:19.585Z,58.70
2018-04-09T02:14:19.615Z,58.80
2018-04-09T02:15:19.649Z,58.70
2018-04-09T02:16:19.675Z,58.28
2018-04-09T02:17:19.961Z,58.37
2018-04-09T02:18:19.739Z,58.76
2018-04-09T02:19:19.771Z,58.89
2018-04-09T02:20:19.805Z,58.80
2018-04-09T02:21:19.838Z,58.86
2018-04-09T02:22:19.868Z,58.98
2018-04-09T02:23:19.900Z,58.80
2018-04-09T02:24:20.264Z,58.70
2018-04-09T02:25:19.971Z,58.98
2018-04-09T02:26:20.001Z,58.70
2018-04-09T02:27:20.047Z,58.80
2018-04-09T02:28:20.072Z,58.89
2018-04-09T02:29:20.110Z,58.76
2018-04-09T02:30:20.151Z,58.70
2018-04-09T02:31:20.416Z,58.70
2018-04-09T02:32:20.195Z,58.50
2018-04-09T02:33:20.272Z,58.70
2018-04-09T02:34:20.258Z,58.89
2018-04-09T02:35:20.289Z,58.89
2018-04-09T02:36:20.325Z,58.86
2018-04-09T02:37:20.361Z,59.08
2018-04-09T02:38:20.638Z,58.50
2018-04-09T02:39:20.430Z,58.89
2018-04-09T02:40:20.452Z,59.05
2018-04-09T02:41:20.498Z,58.60
2018-04-09T02:42:20.527Z,59.08
2018-04-09T02:43:20.555Z,59.08
2018-04-09T02:44:20.587Z,58.86
2018-04-09T02:45:20.865Z,58.70
2018-04-09T02:46:20.651Z,58.76
2018-04-09T02:47:20.698Z,58.86
2018-04-09T02:48:20.724Z,58.86
2018-04-09T02:49:20.751Z,58.86
2018-04-09T02:50:20.799Z,58.76
2018-04-09T02:51:20.819Z,59.15
2018-04-09T02:52:21.091Z,58.86
2018-04-09T02:53:20.889Z,59.05
2018-04-09T02:54:20.915Z,58.76
2018-04-09T02:55:20.994Z,58.76
2018-04-09T02:56:20.980Z,58.76
2018-04-09T02:57:21.005Z,58.95
2018-04-09T02:58:21.043Z,59.15
2018-04-09T02:59:21.328Z,58.95
2018-04-09T03:00:21.103Z,59.15
2018-04-09T03:01:21.146Z,58.95
2018-04-09T03:02:21.183Z,59.15
2018-04-09T03:03:21.212Z,58.95
2018-04-09T03:04:21.232Z,58.86
2018-04-09T03:05:21.315Z,58.86
2018-04-09T03:06:21.551Z,59.05
2018-04-09T03:07:21.341Z,58.95
2018-04-09T03:08:21.373Z,59.15
2018-04-09T03:09:21.446Z,58.95
2018-04-09T03:10:21.432Z,58.86
2018-04-09T03:11:21.465Z,59.25
2018-04-09T03:12:21.494Z,58.76
2018-04-09T03:13:21.784Z,58.76
2018-04-09T03:14:21.556Z,59.25
2018-04-09T03:15:21.594Z,59.44
2018-04-09T03:16:21.622Z,59.44
2018-04-09T03:17:21.698Z,59.44
2018-04-09T03:18:21.692Z,59.44
2018-04-09T03:19:21.724Z,59.44
2018-04-09T03:20:22.022Z,59.44
2018-04-09T03:21:21.800Z,59.34
2018-04-09T03:22:21.818Z,58.86
2018-04-09T03:23:21.867Z,59.44
2018-04-09T03:25:21.915Z,59.15
2018-04-09T03:26:21.952Z,59.34
2018-04-09T03:27:22.236Z,59.73
2018-04-09T03:28:22.030Z,59.83
2018-04-09T03:29:22.080Z,59.63
2018-04-09T03:30:22.077Z,59.73
2018-04-09T03:31:22.115Z,59.73
2018-04-09T03:32:22.159Z,59.63
2018-04-09T03:33:22.471Z,59.83
2018-04-09T03:34:22.204Z,59.63
2018-04-09T03:35:22.238Z,59.92
2018-04-09T03:36:22.273Z,59.92
2018-04-09T03:37:22.307Z,59.73
2018-04-09T03:38:22.366Z,59.83
2018-04-09T03:39:22.630Z,59.73
2018-04-09T03:40:22.402Z,59.63
2018-04-09T03:41:22.430Z,59.73
2018-04-09T03:42:22.472Z,59.53
2018-04-09T03:43:22.528Z,59.83
2018-04-09T03:44:22.528Z,59.73
2018-04-09T03:45:22.819Z,59.63
2018-04-09T03:46:22.600Z,59.53
2018-04-09T03:47:22.692Z,59.92
2018-04-09T03:48:22.709Z,59.92
2018-04-09T03:49:22.689Z,59.73
2018-04-09T03:50:22.723Z,59.63
2018-04-09T03:51:23.022Z,59.83
2018-04-09T03:52:22.794Z,59.63
2018-04-09T03:53:22.909Z,59.73
2018-04-09T03:54:22.870Z,59.73
2018-04-09T03:55:22.884Z,59.63
2018-04-09T03:56:22.913Z,59.63
2018-04-09T03:57:23.212Z,60.02
2018-04-09T03:58:23.048Z,59.73
2018-04-09T03:59:23.022Z,60.02
2018-04-09T04:00:23.055Z,60.02
2018-04-09T04:01:23.085Z,59.92
2018-04-09T04:02:23.119Z,59.73
2018-04-09T04:03:23.512Z,59.83
2018-04-09T04:04:23.175Z,59.73
2018-04-09T04:05:23.212Z,59.73
2018-04-09T04:06:23.243Z,59.73
2018-04-09T04:07:23.282Z,59.73
2018-04-09T04:08:23.312Z,59.83
2018-04-09T04:09:23.601Z,59.73
2018-04-09T04:10:23.376Z,59.83
2018-04-09T04:11:23.412Z,59.92
2018-04-09T04:12:23.436Z,59.83
2018-04-09T04:13:23.469Z,59.73
2018-04-09T04:14:23.501Z,59.63
2018-04-09T04:15:23.780Z,59.73
2018-04-09T04:16:23.567Z,59.63
2018-04-09T04:17:23.593Z,59.73
2018-04-09T04:18:23.628Z,59.73
2018-04-09T04:19:23.657Z,59.92
2018-04-09T04:20:23.801Z,59.73
2018-04-09T04:21:24.043Z,59.73
2018-04-09T04:22:23.813Z,59.73
2018-04-09T04:23:23.817Z,59.63
2018-04-09T04:24:23.838Z,59.73
2018-04-09T04:25:23.851Z,59.73
2018-04-09T04:26:23.899Z,59.73
2018-04-09T04:27:24.169Z,59.53
2018-04-09T04:28:23.981Z,59.63
2018-04-09T04:29:23.983Z,59.53
2018-04-09T04:30:24.025Z,59.44
2018-04-09T04:31:24.054Z,59.53
2018-04-09T04:32:24.080Z,59.44
2018-04-09T04:33:24.364Z,59.83
2018-04-09T04:34:24.155Z,59.53
2018-04-09T04:35:24.175Z,59.63
2018-04-09T04:36:24.212Z,59.92
2018-04-09T04:37:24.236Z,59.53
2018-04-09T04:38:24.272Z,59.73
2018-04-09T04:39:24.553Z,59.73
2018-04-09T04:40:24.347Z,59.60
2018-04-09T04:41:24.368Z,59.63
2018-04-09T04:42:24.415Z,59.80
2018-04-09T04:43:24.436Z,60.02
2018-04-09T04:44:24.470Z,59.63
2018-04-09T04:45:24.801Z,59.70
2018-04-09T04:46:24.532Z,59.70
2018-04-09T04:47:24.569Z,59.73
2018-04-09T04:48:24.701Z,59.25
2018-04-09T04:49:24.658Z,59.63
2018-04-09T04:50:24.657Z,59.60
2018-04-09T04:51:24.692Z,59.73
2018-04-09T04:52:24.975Z,59.51
2018-04-09T04:53:24.759Z,59.60
2018-04-09T04:54:24.787Z,59.51
2018-04-09T04:55:24.835Z,59.83
2018-04-09T04:56:24.858Z,59.53
2018-04-09T04:57:24.887Z,59.63
2018-04-09T04:58:24.920Z,59.63
2018-04-09T04:59:25.259Z,59.44
2018-04-09T05:00:24.994Z,59.44
2018-04-09T05:01:25.037Z,59.63
2018-04-09T05:02:25.049Z,59.63
2018-04-09T05:03:25.119Z,59.63
2018-04-09T05:04:25.115Z,59.53
2018-04-09T05:05:25.145Z,59.34
2018-04-09T05:06:25.430Z,59.53
2018-04-09T05:07:25.208Z,59.60
2018-04-09T05:08:25.241Z,59.63
2018-04-09T05:09:25.275Z,59.51
2018-04-09T05:10:25.314Z,59.53
2018-04-09T05:11:25.350Z,59.63
2018-04-09T05:12:25.383Z,59.60
2018-04-09T05:13:25.652Z,59.53
2018-04-09T05:14:25.433Z,59.51
2018-04-09T05:15:25.474Z,59.63
2018-04-09T05:16:25.510Z,59.53
2018-04-09T05:17:25.538Z,59.60
2018-04-09T05:18:25.564Z,59.53
2018-04-09T05:19:25.600Z,59.60
2018-04-09T05:20:25.944Z,59.53
2018-04-09T05:21:25.686Z,59.63
2018-04-09T05:22:25.713Z,59.63
2018-04-09T05:23:25.809Z,59.63
2018-04-09T05:24:25.764Z,59.63
2018-04-09T05:25:25.797Z,59.63
2018-04-09T05:26:25.821Z,59.73
2018-04-09T05:27:26.159Z,59.53
2018-04-09T05:28:25.892Z,59.60
2018-04-09T05:29:25.961Z,59.63
2018-04-09T05:30:25.959Z,59.63
2018-04-09T05:31:26.172Z,59.63
2018-04-09T05:32:26.069Z,59.44
2018-04-09T05:33:26.070Z,59.73
2018-04-09T05:34:26.380Z,59.41
2018-04-09T05:35:26.184Z,59.63
2018-04-09T05:36:26.270Z,59.73
2018-04-09T05:37:26.219Z,59.83
2018-04-09T05:38:26.209Z,59.73
2018-04-09T05:39:26.260Z,59.63
2018-04-09T05:40:26.284Z,59.53
2018-04-09T05:41:26.614Z,59.34
2018-04-09T05:42:26.361Z,59.25
2018-04-09T05:43:26.452Z,59.34
2018-04-09T05:44:26.401Z,59.44
2018-04-09T05:45:26.437Z,58.95
2018-04-09T05:46:26.466Z,58.95
2018-04-09T05:47:26.523Z,59.25
2018-04-09T05:48:26.834Z,58.76
2018-04-09T05:49:26.568Z,58.86
2018-04-09T05:50:26.598Z,58.86
2018-04-09T05:51:26.679Z,58.86
2018-04-09T05:52:26.663Z,58.76
2018-04-09T05:53:26.698Z,58.95
2018-04-09T05:54:26.769Z,59.05
2018-04-09T05:55:27.059Z,58.47
2018-04-09T05:56:26.794Z,58.67
2018-04-09T05:57:26.841Z,58.76
2018-04-09T05:58:26.884Z,58.57
2018-04-09T05:59:26.911Z,58.76
2018-04-09T06:00:26.932Z,58.76
2018-04-09T06:01:27.063Z,58.76
2018-04-09T06:02:27.288Z,58.95
2018-04-09T06:03:27.036Z,58.76
2018-04-09T06:04:27.053Z,58.86
2018-04-09T06:05:27.085Z,58.95
2018-04-09T06:06:27.115Z,58.95
2018-04-09T06:07:27.203Z,58.47
2018-04-09T06:08:27.197Z,58.47
2018-04-09T06:09:27.514Z,58.28
2018-04-09T06:10:27.248Z,58.28
2018-04-09T06:11:27.300Z,58.28
2018-04-09T06:12:27.311Z,58.47
2018-04-09T06:13:27.342Z,58.37
2018-04-09T06:14:27.375Z,58.37
2018-04-09T06:15:27.666Z,58.47
2018-04-09T06:16:27.444Z,58.37
2018-04-09T06:17:27.474Z,58.57
2018-04-09T06:18:27.506Z,58.57
2018-04-09T06:19:27.543Z,58.57
2018-04-09T06:20:27.573Z,58.57
2018-04-09T06:21:27.902Z,58.37
2018-04-09T06:22:27.638Z,58.37
2018-04-09T06:23:27.680Z,57.70
2018-04-09T06:24:27.701Z,57.99
2018-04-09T06:25:27.766Z,57.99
2018-04-09T06:26:27.768Z,57.99
2018-04-09T06:27:28.095Z,57.99
2018-04-09T06:28:27.843Z,57.89
2018-04-09T06:29:27.869Z,57.51
2018-04-09T06:30:27.900Z,57.60
2018-04-09T06:31:27.977Z,57.60
2018-04-09T06:32:27.967Z,57.60
2018-04-09T06:33:28.298Z,57.79
2018-04-09T06:34:28.033Z,57.60
2018-04-09T06:35:28.069Z,57.60
2018-04-09T06:36:28.091Z,57.79
2018-04-09T06:37:28.128Z,57.89
2018-04-09T06:38:28.168Z,57.89
2018-04-09T06:39:28.508Z,57.99
2018-04-09T06:40:28.226Z,57.99
2018-04-09T06:41:28.323Z,57.79
2018-04-09T06:42:28.300Z,57.12
2018-04-09T06:43:28.322Z,57.31
2018-04-09T06:44:28.352Z,57.31
2018-04-09T06:45:28.740Z,57.41
2018-04-09T06:46:28.463Z,57.21
2018-04-09T06:47:28.454Z,57.31
2018-04-09T06:48:28.479Z,57.31
2018-04-09T06:49:28.565Z,57.31
2018-04-09T06:50:28.546Z,57.41
2018-04-09T06:51:28.833Z,57.51
2018-04-09T06:52:28.610Z,57.41
2018-04-09T06:53:28.655Z,57.51
2018-04-09T06:54:28.676Z,57.21
2018-04-09T06:55:28.713Z,57.31
2018-04-09T06:56:28.747Z,57.31
2018-04-09T06:57:29.025Z,57.15
2018-04-09T06:58:28.809Z,56.93
2018-04-09T06:59:28.841Z,57.21
2018-04-09T07:00:28.884Z,57.34
2018-04-09T07:01:28.907Z,57.12
2018-04-09T07:02:28.939Z,57.34
2018-04-09T07:03:29.254Z,57.05
2018-04-09T07:04:29.104Z,57.21
2018-04-09T07:05:29.041Z,57.44
2018-04-09T07:06:29.072Z,56.93
2018-04-09T07:07:29.104Z,56.86
2018-04-09T07:08:29.145Z,56.76
2018-04-09T07:09:29.492Z,57.05
2018-04-09T07:10:29.213Z,57.21
2018-04-09T07:11:29.266Z,57.15
2018-04-09T07:12:29.286Z,56.95
2018-04-09T07:13:29.349Z,57.24
2018-04-09T07:14:29.330Z,57.21
2018-04-09T07:15:29.680Z,56.95
2018-04-09T07:16:29.394Z,56.95
2018-04-09T07:17:29.429Z,56.86
2018-04-09T07:18:29.492Z,56.93
2018-04-09T07:19:29.512Z,56.86
2018-04-09T07:20:29.524Z,56.76
2018-04-09T07:21:29.817Z,57.05
2018-04-09T07:22:29.598Z,56.95
2018-04-09T07:23:29.625Z,56.86
2018-04-09T07:24:29.659Z,56.86
2018-04-09T07:25:29.689Z,57.15
2018-04-09T07:26:29.745Z,57.15
2018-04-09T07:27:29.761Z,57.24
2018-04-09T07:28:30.097Z,56.76
2018-04-09T07:29:29.821Z,56.67
2018-04-09T07:30:29.859Z,56.67
2018-04-09T07:31:29.885Z,56.18
2018-04-09T07:32:29.922Z,56.47
2018-04-09T07:33:29.960Z,56.28
2018-04-09T07:34:30.038Z,56.47
2018-04-09T07:35:30.282Z,56.37
2018-04-09T07:36:30.052Z,56.63
2018-04-09T07:37:30.099Z,56.67
2018-04-09T07:38:30.121Z,56.47
2018-04-09T07:39:30.158Z,56.47
2018-04-09T07:40:30.181Z,56.37
2018-04-09T07:41:30.214Z,56.18
2018-04-09T07:42:30.497Z,56.37
2018-04-09T07:43:30.280Z,56.28
2018-04-09T07:44:30.386Z,56.37
2018-04-09T07:45:30.389Z,56.18
2018-04-09T07:46:30.386Z,55.79
2018-04-09T07:47:30.411Z,56.09
2018-04-09T07:48:30.448Z,56.09
2018-04-09T07:49:30.733Z,55.89
2018-04-09T07:50:30.525Z,56.47
2018-04-09T07:51:30.546Z,56.47
2018-04-09T07:52:30.583Z,56.47
2018-04-09T07:53:30.617Z,55.99
2018-04-09T07:54:30.681Z,55.99
2018-04-09T07:55:30.674Z,55.70
2018-04-09T07:56:30.973Z,55.89
2018-04-09T07:57:30.752Z,55.70
2018-04-09T07:58:31.552Z,55.70
2018-04-09T07:59:30.810Z,55.60
2018-04-09T08:00:30.848Z,55.99
2018-04-09T08:01:30.882Z,55.70
2018-04-09T08:02:30.934Z,55.51
2018-04-09T08:03:30.939Z,55.51
2018-04-09T08:04:30.976Z,55.60
2018-04-09T08:05:31.006Z,55.51
2018-04-09T08:06:31.039Z,55.89
2018-04-09T08:07:31.092Z,55.41
2018-04-09T08:08:31.108Z,55.34
2018-04-09T08:09:31.436Z,55.41
2018-04-09T08:10:31.172Z,55.11
2018-04-09T08:11:31.202Z,55.11
2018-04-09T08:12:31.239Z,55.31
2018-04-09T08:13:31.267Z,55.43
2018-04-09T08:14:31.301Z,55.31
2018-04-09T08:15:31.335Z,55.41
2018-04-09T08:16:31.667Z,55.34
2018-04-09T08:17:31.409Z,55.53
2018-04-09T08:18:31.435Z,55.41
2018-04-09T08:19:31.476Z,54.66
2018-04-09T08:20:31.553Z,54.66
2018-04-09T08:21:31.545Z,54.75
2018-04-09T08:22:31.574Z,54.37
2018-04-09T08:23:31.905Z,54.57
2018-04-09T08:24:31.642Z,54.66
2018-04-09T08:25:31.687Z,54.75
2018-04-09T08:26:31.704Z,54.27
2018-04-09T08:27:31.740Z,54.75
2018-04-09T08:28:31.774Z,54.66
2018-04-09T08:29:31.816Z,54.17
2018-04-09T08:30:32.091Z,54.08
2018-04-09T08:31:31.879Z,54.37
2018-04-09T08:32:31.901Z,53.99
2018-04-09T08:33:31.937Z,54.08
2018-04-09T08:34:31.967Z,54.17
2018-04-09T08:35:32.017Z,54.17
2018-04-09T08:36:32.235Z,53.99
2018-04-09T08:37:32.377Z,54.27
2018-04-09T08:38:32.129Z,53.99
2018-04-09T08:39:32.146Z,53.99
2018-04-09T08:40:32.176Z,53.69
2018-04-09T08:41:32.227Z,53.89
2018-04-09T08:42:32.239Z,53.81
2018-04-09T08:43:32.270Z,53.89
2018-04-09T08:44:32.617Z,53.79
2018-04-09T08:45:32.340Z,53.53
2018-04-09T08:46:32.381Z,53.41
2018-04-09T08:47:32.410Z,53.53
2018-04-09T08:48:32.443Z,53.43
2018-04-09T08:49:32.476Z,53.14
2018-04-09T08:50:32.817Z,53.31
2018-04-09T08:51:32.546Z,52.82
2018-04-09T08:52:32.582Z,53.04
2018-04-09T08:53:32.613Z,53.11
2018-04-09T08:54:32.650Z,53.33
2018-04-09T08:55:32.723Z,53.41
2018-04-09T08:56:33.014Z,53.41
2018-04-09T08:57:32.745Z,53.53
2018-04-09T08:58:32.779Z,53.23
2018-04-09T08:59:32.826Z,53.43
2018-04-09T09:00:32.844Z,53.14
2018-04-09T09:01:32.898Z,53.33
2018-04-09T09:02:33.163Z,53.43
2018-04-09T09:03:32.950Z,53.04
2018-04-09T09:04:32.990Z,52.66
2018-04-09T09:05:33.019Z,52.95
2018-04-09T09:06:33.051Z,53.33
2018-04-09T09:07:33.100Z,53.33
2018-04-09T09:08:33.402Z,52.95
2018-04-09T09:09:33.162Z,53.04
2018-04-09T09:10:33.199Z,52.66
2018-04-09T09:11:33.220Z,53.04
2018-04-09T09:12:33.253Z,52.75
2018-04-09T09:13:33.299Z,52.66
2018-04-09T09:14:33.628Z,52.66
2018-04-09T09:15:33.360Z,53.04
2018-04-09T09:16:33.421Z,53.33
2018-04-09T09:17:33.555Z,53.33
2018-04-09T09:18:33.462Z,52.85
2018-04-09T09:19:33.493Z,52.95
2018-04-09T09:20:33.835Z,53.04
2018-04-09T09:21:33.558Z,52.95
2018-04-09T09:22:33.602Z,52.95
2018-04-09T09:23:33.629Z,52.95
2018-04-09T09:24:33.668Z,52.85
2018-04-09T09:25:33.692Z,53.04
2018-04-09T09:26:34.037Z,52.85
2018-04-09T09:27:33.762Z,52.95
2018-04-09T09:28:33.810Z,52.95
2018-04-09T09:29:33.845Z,53.04
2018-04-09T09:30:33.863Z,52.75
2018-04-09T09:31:33.900Z,52.56
2018-04-09T09:32:34.233Z,52.66
2018-04-09T09:33:33.966Z,52.56
2018-04-09T09:34:34.004Z,52.85
2018-04-09T09:35:34.036Z,52.66
2018-04-09T09:36:34.073Z,52.85
2018-04-09T09:37:34.108Z,52.46
2018-04-09T09:38:34.391Z,52.66
2018-04-09T09:39:34.192Z,52.46
2018-04-09T09:40:34.212Z,52.36
2018-04-09T09:41:34.240Z,52.66
2018-04-09T09:42:34.277Z,52.75
2018-04-09T09:43:34.447Z,52.56
2018-04-09T09:44:34.803Z,52.66
2018-04-09T09:45:34.378Z,52.36
2018-04-09T09:46:34.429Z,52.68
2018-04-09T09:47:34.550Z,52.49
2018-04-09T09:48:34.493Z,52.68
2018-04-09T09:49:34.517Z,52.39
2018-04-09T09:50:34.865Z,52.68
2018-04-09T09:51:34.658Z,52.39
2018-04-09T09:52:34.622Z,52.49
2018-04-09T09:53:34.655Z,52.39
2018-04-09T09:54:34.702Z,52.39
2018-04-09T09:55:34.723Z,52.39
2018-04-09T09:56:35.157Z,52.58
2018-04-09T09:57:34.794Z,52.49
2018-04-09T09:58:34.887Z,52.39
2018-04-09T09:59:34.938Z,52.39
2018-04-09T10:00:34.933Z,52.39
2018-04-09T10:01:34.988Z,52.29
2018-04-09T10:02:35.260Z,52.68
2018-04-09T10:03:35.081Z,52.49
2018-04-09T10:04:35.142Z,52.49
2018-04-09T10:05:35.078Z,52.49
2018-04-09T10:06:35.188Z,52.49
2018-04-09T10:07:35.164Z,52.68
2018-04-09T10:08:35.216Z,52.58
2018-04-09T10:09:35.842Z,52.68
2018-04-09T10:10:35.242Z,52.58
2018-04-09T10:11:35.430Z,52.49
2018-04-09T10:12:35.312Z,52.58
2018-04-09T10:13:35.344Z,52.78
2018-04-09T10:14:35.402Z,52.78
2018-04-09T10:15:35.444Z,52.29
2018-04-09T10:16:35.745Z,52.68
2018-04-09T10:17:35.478Z,52.00
2018-04-09T10:18:35.521Z,52.00
2018-04-09T10:19:35.564Z,52.29
2018-04-09T10:20:35.649Z,52.39
2018-04-09T10:21:35.629Z,52.20
2018-04-09T10:22:35.651Z,52.58
2018-04-09T10:23:36.000Z,52.39
2018-04-09T10:24:36.200Z,52.49
2018-04-09T10:25:35.824Z,52.29
2018-04-09T10:26:36.231Z,52.29
2018-04-09T10:27:35.825Z,52.29
2018-04-09T10:28:35.858Z,52.39
2018-04-09T10:29:35.928Z,52.39
2018-04-09T10:30:36.180Z,52.39
2018-04-09T10:31:35.967Z,52.39
2018-04-09T10:32:36.030Z,52.29
2018-04-09T10:33:36.032Z,52.10
2018-04-09T10:34:36.168Z,52.39
2018-04-09T10:35:36.164Z,52.39
2018-04-09T10:36:36.163Z,52.39
2018-04-09T10:37:36.470Z,52.29
2018-04-09T10:38:36.245Z,52.49
2018-04-09T10:39:36.257Z,52.49
2018-04-09T10:40:36.272Z,52.39
2018-04-09T10:41:36.472Z,52.49
2018-04-09T10:42:36.392Z,51.90
2018-04-09T10:43:36.378Z,52.39
2018-04-09T10:44:36.666Z,52.29
2018-04-09T10:45:36.543Z,51.72
2018-04-09T10:46:36.538Z,51.90
2018-04-09T10:47:36.516Z,51.72
2018-04-09T10:48:36.546Z,52.00
2018-04-09T10:49:36.688Z,51.81
2018-04-09T10:50:36.615Z,51.90
2018-04-09T10:51:36.953Z,51.72
2018-04-09T10:52:36.810Z,51.90
2018-04-09T10:53:36.775Z,51.90
2018-04-09T10:54:36.853Z,51.90
2018-04-09T10:55:36.851Z,52.00
2018-04-09T10:56:36.846Z,52.00
2018-04-09T10:57:36.872Z,51.72
2018-04-09T10:58:37.196Z,51.52
2018-04-09T10:59:37.028Z,51.62
2018-04-09T11:00:36.976Z,51.90
2018-04-09T11:01:37.025Z,51.81
2018-04-09T11:02:37.192Z,51.62
2018-04-09T11:03:37.157Z,51.81
2018-04-09T11:04:37.110Z,51.72
2018-04-09T11:05:37.399Z,51.72
2018-04-09T11:06:37.416Z,51.72
2018-04-09T11:07:37.208Z,51.52
2018-04-09T11:08:37.256Z,51.81
2018-04-09T11:09:37.275Z,51.72
2018-04-09T11:10:37.320Z,51.81
2018-04-09T11:11:37.360Z,51.90
2018-04-09T11:12:37.681Z,51.72
2018-04-09T11:13:37.441Z,51.62
2018-04-09T11:14:37.477Z,51.52
2018-04-09T11:15:37.586Z,51.42
2018-04-09T11:16:37.547Z,51.42
2018-04-09T11:17:37.557Z,51.72
2018-04-09T11:18:37.593Z,51.72
2018-04-09T11:19:37.874Z,51.72
2018-04-09T11:20:37.675Z,51.74
2018-04-09T11:21:37.704Z,51.81
2018-04-09T11:22:37.735Z,51.84
2018-04-09T11:23:37.765Z,51.84
2018-04-09T11:24:37.806Z,51.52
2018-04-09T11:25:37.832Z,51.74
2018-04-09T11:26:38.116Z,51.54
2018-04-09T11:27:37.907Z,52.00
2018-04-09T11:28:37.935Z,51.62
2018-04-09T11:29:37.971Z,51.62
2018-04-09T11:30:38.004Z,51.72
2018-04-09T11:31:38.078Z,51.93
2018-04-09T11:32:38.378Z,51.81
2018-04-09T11:33:38.112Z,51.74
2018-04-09T11:34:38.149Z,51.74
2018-04-09T11:35:38.178Z,51.74
2018-04-09T11:36:38.249Z,51.74
2018-04-09T11:37:38.253Z,51.84
2018-04-09T11:38:38.564Z,51.72
2018-04-09T11:39:38.340Z,51.62
2018-04-09T11:40:38.369Z,51.72
2018-04-09T11:41:38.399Z,51.72
2018-04-09T11:42:38.444Z,51.72
2018-04-09T11:43:38.469Z,51.81
2018-04-09T11:44:38.756Z,51.93
2018-04-09T11:45:38.528Z,51.84
2018-04-09T11:46:38.576Z,51.62
2018-04-09T11:47:38.603Z,51.64
2018-04-09T11:48:38.635Z,51.72
2018-04-09T11:49:38.671Z,51.72
2018-04-09T11:50:39.045Z,51.52
2018-04-09T11:51:38.742Z,51.72
2018-04-09T11:52:38.770Z,51.52
2018-04-09T11:53:38.825Z,51.62
2018-04-09T11:54:38.840Z,51.64
2018-04-09T11:55:38.879Z,51.74
2018-04-09T11:56:39.157Z,51.84
2018-04-09T11:57:38.943Z,51.93
2018-04-09T11:58:38.976Z,51.64
2018-04-09T11:59:39.011Z,51.64
2018-04-09T12:00:39.088Z,51.74
2018-04-09T12:01:39.082Z,51.84
2018-04-09T12:02:39.427Z,51.74
2018-04-09T12:03:39.180Z,51.35
2018-04-09T12:04:39.224Z,51.45
2018-04-09T12:05:39.222Z,51.93
2018-04-09T12:06:39.254Z,52.03
2018-04-09T12:07:39.302Z,52.03
2018-04-09T12:08:39.326Z,51.74
2018-04-09T12:09:39.361Z,51.35
2018-04-09T12:10:39.453Z,51.35
2018-04-09T12:11:39.427Z,51.54
2018-04-09T12:12:39.468Z,51.45
2018-04-09T12:13:39.497Z,51.72
2018-04-09T12:14:39.566Z,51.74
2018-04-09T12:15:39.612Z,51.54
2018-04-09T12:16:39.601Z,51.52
2018-04-09T12:17:39.640Z,51.25
2018-04-09T12:18:39.691Z,51.74
2018-04-09T12:19:39.724Z,51.84
2018-04-09T12:20:40.047Z,51.54
2018-04-09T12:21:39.815Z,51.45
2018-04-09T12:22:39.859Z,51.25
2018-04-09T12:23:39.866Z,51.54
2018-04-09T12:24:39.898Z,51.74
2018-04-09T12:25:39.917Z,51.74
2018-04-09T12:26:40.251Z,51.74
2018-04-09T12:27:39.988Z,51.74
2018-04-09T12:28:40.039Z,51.54
2018-04-09T12:29:40.063Z,51.54
2018-04-09T12:30:40.100Z,51.64
2018-04-09T12:31:40.182Z,51.45
2018-04-09T12:32:40.421Z,51.84
2018-04-09T12:33:40.197Z,51.84
2018-04-09T12:34:40.229Z,51.84
2018-04-09T12:35:40.264Z,51.54
2018-04-09T12:36:40.304Z,51.74
2018-04-09T12:37:40.333Z,51.84
2018-04-09T12:38:40.928Z,51.84
2018-04-09T12:39:40.404Z,51.54
2018-04-09T12:40:40.437Z,51.45
2018-04-09T12:41:40.486Z,51.35
2018-04-09T12:42:40.527Z,51.35
2018-04-09T12:43:40.551Z,51.54
2018-04-09T12:44:40.856Z,51.45
2018-04-09T12:45:40.611Z,51.35
2018-04-09T12:46:40.647Z,51.25
2018-04-09T12:47:40.684Z,51.54
2018-04-09T12:48:40.728Z,51.54
2018-04-09T12:49:40.750Z,51.54
2018-04-09T12:50:40.787Z,51.64
2018-04-09T12:51:41.071Z,51.64
2018-04-09T12:52:40.982Z,51.54
2018-04-09T12:53:41.119Z,51.45